Kota Ria — 9VJK4 — position and weather

sailwx.info

Track history (hours):
 
Tides and Currents Weather Stations Pressure Air Temp Water Temp Dewpoint Dewpoint Depression Visibility Wind Speed Wind Dir Waves Ship Positions

Kota Ria

Last reported at 2014-Jul-15 14:10 UTC. Time now 2014-Jul-29 22:57 UTC.
Position N 01°12' E 103°36'.
Warning: this ship's position is 14 days out of date.

Length 146 m; draft 8.1 m.

Type: Cargo ship. MMSI: 565050000.

Date/timePositionNaut miles runAvg speedWind from/ knotsBaromVisibWave heightAir tempDewpointWater temp
2014-Jul-15 14:10N 01°12' E 103°36'7 7.9
2014-Jul-15 13:18N 01°15' E 103°43'4 5.6
2014-Jul-15 12:33N 01°17' E 103°46'0 0.1
2014-Jul-15 11:33N 01°17' E 103°46'0 0.0
2014-Jul-15 10:27N 01°17' E 103°46'0 0.0
2014-Jul-15 09:33N 01°17' E 103°46'0 0.0
2014-Jul-15 08:33N 01°17' E 103°46'0 0.0
2014-Jul-15 06:33N 01°17' E 103°46'0 0.0
2014-Jul-15 05:33N 01°17' E 103°46'0 0.0
2014-Jul-15 04:33N 01°17' E 103°46'0 0.0
2014-Jul-15 03:27N 01°17' E 103°46'0 0.0
2014-Jul-15 02:33N 01°17' E 103°46'0 0.0
2014-Jul-15 01:27N 01°17' E 103°46'0 0.0
2014-Jul-15 00:18N 01°17' E 103°46'0 0.0
2014-Jul-14 21:33N 01°17' E 103°46'0 0.0
2014-Jul-14 20:21N 01°17' E 103°46'0 0.0
2014-Jul-14 19:21N 01°17' E 103°46'0 0.0
2014-Jul-14 18:27N 01°17' E 103°46'0 0.0
2014-Jul-14 17:33N 01°17' E 103°46'0 0.0
2014-Jul-14 16:33N 01°17' E 103°46'0 0.0
2014-Jul-14 15:33N 01°17' E 103°46'0 0.0
2014-Jul-14 14:33N 01°17' E 103°46'0 0.0
2014-Jul-14 13:15N 01°17' E 103°46'0 0.0
2014-Jul-14 12:33N 01°17' E 103°46'3 3.0
2014-Jul-14 11:34N 01°15' E 103°48'1 0.6
2014-Jul-14 10:33N 01°14' E 103°48'0 0.1
2014-Jul-14 09:15N 01°15' E 103°48'0 0.1
2014-Jul-14 08:21N 01°15' E 103°48'0 0.4
2014-Jul-14 07:33N 01°15' E 103°48'9 7.2
2014-Jul-14 06:20N 01°12' E 103°40'  
Track history (hours):
 
Tides and Currents Weather Stations Pressure Air Temp Water Temp Dewpoint Dewpoint Depression Visibility Wind Speed Wind Dir Waves Ship Positions

Kota Ria

Last reported at 2014-Jul-15 14:10 UTC. Time now 2014-Jul-29 22:57 UTC.
Position N 01°12' E 103°36'.
Warning: this ship's position is 14 days out of date.

Length 146 m; draft 8.1 m.

Type: Cargo ship. MMSI: 565050000.

Date/timePositionNaut miles runAvg speedWind from/ knotsBaromVisibWave heightAir tempDewpointWater temp
2014-Jul-15 14:10N 01°12' E 103°36'7 7.9
2014-Jul-15 13:18N 01°15' E 103°43'4 5.6
2014-Jul-15 12:33N 01°17' E 103°46'0 0.1
2014-Jul-15 11:33N 01°17' E 103°46'0 0.0
2014-Jul-15 10:27N 01°17' E 103°46'0 0.0
2014-Jul-15 09:33N 01°17' E 103°46'0 0.0
2014-Jul-15 08:33N 01°17' E 103°46'0 0.0
2014-Jul-15 06:33N 01°17' E 103°46'0 0.0
2014-Jul-15 05:33N 01°17' E 103°46'0 0.0
2014-Jul-15 04:33N 01°17' E 103°46'0 0.0
2014-Jul-15 03:27N 01°17' E 103°46'0 0.0
2014-Jul-15 02:33N 01°17' E 103°46'0 0.0
2014-Jul-15 01:27N 01°17' E 103°46'0 0.0
2014-Jul-15 00:18N 01°17' E 103°46'0 0.0
2014-Jul-14 21:33N 01°17' E 103°46'0 0.0
2014-Jul-14 20:21N 01°17' E 103°46'0 0.0
2014-Jul-14 19:21N 01°17' E 103°46'0 0.0
2014-Jul-14 18:27N 01°17' E 103°46'0 0.0
2014-Jul-14 17:33N 01°17' E 103°46'0 0.0
2014-Jul-14 16:33N 01°17' E 103°46'0 0.0
2014-Jul-14 15:33N 01°17' E 103°46'0 0.0
2014-Jul-14 14:33N 01°17' E 103°46'0 0.0
2014-Jul-14 13:15N 01°17' E 103°46'0 0.0
2014-Jul-14 12:33N 01°17' E 103°46'3 3.0
2014-Jul-14 11:34N 01°15' E 103°48'1 0.6
2014-Jul-14 10:33N 01°14' E 103°48'0 0.1
2014-Jul-14 09:15N 01°15' E 103°48'0 0.1
2014-Jul-14 08:21N 01°15' E 103°48'0 0.4
2014-Jul-14 07:33N 01°15' E 103°48'9 7.2
2014-Jul-14 06:20N 01°12' E 103°40'  

Dump ship's entire track history